createdAt,value
2018-04-17T00:00:53.061Z,42.30
2018-04-17T00:03:21.349Z,42.10
2018-04-17T00:05:48.880Z,42.08
2018-04-17T00:08:17.176Z,43.05
2018-04-17T00:10:45.477Z,41.72
2018-04-17T00:13:13.018Z,42.30
2018-04-17T00:15:40.609Z,43.95
2018-04-17T00:18:08.130Z,42.63
2018-04-17T00:20:36.442Z,42.55
2018-04-17T00:23:03.948Z,42.90
2018-04-17T00:25:31.610Z,43.53
2018-04-17T00:27:59.170Z,44.70
2018-04-17T00:30:26.695Z,43.42
2018-04-17T00:32:54.231Z,43.85
2018-04-17T00:35:21.749Z,44.53
2018-04-17T00:37:50.078Z,44.80
2018-04-17T00:40:17.659Z,43.85
2018-04-17T00:42:45.226Z,45.53
2018-04-17T00:45:12.780Z,46.42
2018-04-17T00:47:40.315Z,45.42
2018-04-17T00:50:07.918Z,48.63
2018-04-17T00:52:35.526Z,45.33
2018-04-17T00:55:03.187Z,44.70
2018-04-17T00:57:30.746Z,42.03
2018-04-17T00:59:58.324Z,43.40
2018-04-17T01:02:25.846Z,43.58
2018-04-17T01:04:54.135Z,44.00
2018-04-17T01:07:21.681Z,43.28
2018-04-17T01:09:49.187Z,43.80
2018-04-17T01:12:16.726Z,41.30
2018-04-17T01:14:44.257Z,42.70
2018-04-17T01:17:11.762Z,42.67
2018-04-17T01:19:39.281Z,42.72
2018-04-17T01:22:07.590Z,43.17
2018-04-17T01:24:35.119Z,46.10
2018-04-17T01:27:02.616Z,44.25
2018-04-17T01:29:30.174Z,46.55
2018-04-17T01:31:57.684Z,45.25
2018-04-17T01:34:25.290Z,43.13
2018-04-17T01:36:52.830Z,41.30
2018-04-17T01:39:20.387Z,44.90
2018-04-17T01:41:47.972Z,42.78
2018-04-17T01:44:15.502Z,43.17
2018-04-17T01:46:43.790Z,44.15
2018-04-17T01:49:11.391Z,43.60
2018-04-17T01:51:38.945Z,43.97
2018-04-17T01:56:57.208Z,44.15
2018-04-17T01:59:24.764Z,45.38
2018-04-17T02:01:52.310Z,42.60
2018-04-17T02:04:19.842Z,43.47
2018-04-17T02:06:47.365Z,44.65
2018-04-17T02:09:14.915Z,44.25
2018-04-17T02:11:42.468Z,46.33
2018-04-17T02:14:10.200Z,48.42
2018-04-17T02:16:37.707Z,45.65
2018-04-17T02:19:05.275Z,45.70
2018-04-17T02:21:34.306Z,44.70
2018-04-17T02:24:01.846Z,44.25
2018-04-17T02:26:29.393Z,46.00
2018-04-17T02:28:56.910Z,42.08
2018-04-17T02:31:24.428Z,45.17
2018-04-17T02:33:53.572Z,46.20
2018-04-17T02:36:21.136Z,46.13
2018-04-17T02:38:48.646Z,42.95
2018-04-17T02:41:16.926Z,44.97
2018-04-17T02:43:44.442Z,43.45
2018-04-17T02:46:11.963Z,44.92
2018-04-17T02:48:39.518Z,43.33
2018-04-17T02:51:07.826Z,43.00
2018-04-17T02:53:35.378Z,43.25
2018-04-17T02:56:02.894Z,45.15
2018-04-17T02:58:30.547Z,43.58
2018-04-17T03:00:58.070Z,45.90
2018-04-17T03:03:25.602Z,45.92
2018-04-17T03:05:53.120Z,44.25
2018-04-17T03:08:20.683Z,46.33
2018-04-17T03:10:48.208Z,46.90
2018-04-17T03:13:15.762Z,47.97
2018-04-17T03:15:43.275Z,47.05
2018-04-17T03:18:10.814Z,47.05
2018-04-17T03:20:38.330Z,42.58
2018-04-17T03:23:05.900Z,43.75
2018-04-17T03:25:33.530Z,43.67
2018-04-17T03:28:01.052Z,42.65
2018-04-17T03:30:28.577Z,43.37
2018-04-17T03:32:56.142Z,44.88
2018-04-17T03:35:23.678Z,44.53
2018-04-17T03:37:51.186Z,43.83
2018-04-17T03:40:18.775Z,45.07
2018-04-17T03:42:46.303Z,44.30
2018-04-17T03:45:14.000Z,43.80
2018-04-17T03:47:41.520Z,42.88
2018-04-17T03:50:09.797Z,45.88
2018-04-17T03:52:38.170Z,47.08
2018-04-17T03:55:05.702Z,46.50
2018-04-17T03:57:33.257Z,47.60
2018-04-17T04:00:00.781Z,46.70
2018-04-17T04:02:28.339Z,45.92
2018-04-17T04:04:55.880Z,46.30
2018-04-17T04:07:23.429Z,45.60
2018-04-17T04:09:50.945Z,46.53
2018-04-17T04:12:19.267Z,45.63
2018-04-17T04:14:46.790Z,45.05
2018-04-17T04:17:25.996Z,45.20
2018-04-17T04:20:05.390Z,46.42
2018-04-17T04:22:44.761Z,47.27
2018-04-17T04:25:24.196Z,47.75
2018-04-17T04:27:51.761Z,45.05
2018-04-17T04:30:19.273Z,47.03
2018-04-17T04:32:46.793Z,45.27
2018-04-17T04:35:14.337Z,48.05
2018-04-17T04:37:41.863Z,46.97
2018-04-17T04:40:09.415Z,46.72
2018-04-17T04:42:36.973Z,45.13
2018-04-17T04:45:06.710Z,46.67
2018-04-17T04:47:34.277Z,44.50
2018-04-17T04:50:01.789Z,45.67
2018-04-17T04:52:29.297Z,45.50
2018-04-17T04:54:57.607Z,44.58
2018-04-17T04:57:27.049Z,43.20
2018-04-17T04:59:56.040Z,43.25
2018-04-17T05:02:23.596Z,44.00
2018-04-17T05:04:51.143Z,43.40
2018-04-17T05:07:18.708Z,43.80
2018-04-17T05:09:46.246Z,42.67
2018-04-17T05:12:14.571Z,44.55
2018-04-17T05:14:42.096Z,44.95
2018-04-17T05:17:10.394Z,41.83
2018-04-17T05:19:37.940Z,42.55
2018-04-17T05:22:05.513Z,42.78
2018-04-17T05:24:33.104Z,42.15
2018-04-17T05:27:00.646Z,40.80
2018-04-17T05:29:28.165Z,42.90
2018-04-17T05:31:56.443Z,43.67
2018-04-17T05:34:24.788Z,43.97
2018-04-17T05:36:52.308Z,45.53
2018-04-17T05:39:19.853Z,45.47
2018-04-17T05:41:48.146Z,46.65
2018-04-17T05:44:15.730Z,45.85
2018-04-17T05:46:43.247Z,47.80
2018-04-17T05:49:11.540Z,46.53
2018-04-17T05:51:39.076Z,48.70
2018-04-17T05:54:07.356Z,48.67
2018-04-17T05:56:34.881Z,48.75
2018-04-17T05:59:02.409Z,48.10
2018-04-17T06:01:29.930Z,46.05
2018-04-17T06:03:59.011Z,48.87
2018-04-17T06:06:26.534Z,50.83
2018-04-17T06:08:54.495Z,52.38
2018-04-17T06:11:22.055Z,51.72
2018-04-17T06:13:49.573Z,52.10
2018-04-17T06:16:17.848Z,52.08
2018-04-17T06:18:46.160Z,54.80
2018-04-17T06:21:13.718Z,54.67
2018-04-17T06:23:41.299Z,56.13
2018-04-17T06:26:08.827Z,52.88
2018-04-17T06:28:36.386Z,55.58
2018-04-17T06:31:03.910Z,50.20
2018-04-17T06:33:31.447Z,54.15
2018-04-17T06:35:59.032Z,50.40
2018-04-17T06:38:27.375Z,50.97
2018-04-17T06:40:54.925Z,50.45
2018-04-17T06:43:22.459Z,49.63
2018-04-17T06:45:50.043Z,49.85
2018-04-17T06:48:17.598Z,47.30
2018-04-17T06:50:45.123Z,50.10
2018-04-17T06:53:13.410Z,47.53
2018-04-17T06:55:41.700Z,47.65
2018-04-17T06:58:09.288Z,49.15
2018-04-17T07:00:36.795Z,49.08
2018-04-17T07:03:05.078Z,47.65
2018-04-17T07:05:33.417Z,51.15
2018-04-17T07:08:00.955Z,45.67
2018-04-17T07:10:28.477Z,44.20
2018-04-17T07:12:56.043Z,44.30
2018-04-17T07:15:24.336Z,46.37
2018-04-17T07:17:51.914Z,48.47
2018-04-17T07:20:19.478Z,47.57
2018-04-17T07:22:47.030Z,47.00
2018-04-17T07:25:14.618Z,45.67
2018-04-17T07:27:42.150Z,40.70
2018-04-17T07:30:09.757Z,40.60
2018-04-17T07:32:37.288Z,36.85
2018-04-17T07:35:04.857Z,40.30
2018-04-17T07:37:33.153Z,38.42
2018-04-17T07:40:00.730Z,34.78
2018-04-17T07:42:28.273Z,31.62
2018-04-17T07:44:55.796Z,27.90
2018-04-17T07:47:34.119Z,28.67
2018-04-17T07:50:01.660Z,23.92
2018-04-17T07:52:29.209Z,22.87
2018-04-17T07:54:56.824Z,26.20
2018-04-17T07:57:24.343Z,25.23
2018-04-17T07:59:51.906Z,23.15
2018-04-17T08:02:19.423Z,22.55
2018-04-17T08:04:47.711Z,21.77
2018-04-17T08:07:16.001Z,20.02
2018-04-17T08:09:43.575Z,20.17
2018-04-17T08:12:11.145Z,19.40
2018-04-17T08:14:38.659Z,18.30
2018-04-17T08:17:06.942Z,19.02
2018-04-17T08:19:34.479Z,18.83
2018-04-17T08:22:02.017Z,17.12
2018-04-17T08:24:29.543Z,15.93
2018-04-17T08:26:57.054Z,15.52
2018-04-17T08:29:24.590Z,16.05
2018-04-17T08:31:52.117Z,14.82
2018-04-17T08:34:19.725Z,15.30
2018-04-17T08:36:47.302Z,14.25
2018-04-17T08:39:14.784Z,15.50
2018-04-17T08:41:43.153Z,12.00
2018-04-17T08:44:10.751Z,12.73
2018-04-17T08:46:38.272Z,11.80
2018-04-17T08:49:06.600Z,11.65
2018-04-17T08:51:35.017Z,10.45
2018-04-17T08:54:02.556Z,11.30
2018-04-17T08:56:30.087Z,10.70
2018-04-17T08:58:57.656Z,10.88
2018-04-17T09:01:25.256Z,11.10
2018-04-17T09:03:52.880Z,9.93
2018-04-17T09:06:20.560Z,9.80
2018-04-17T09:08:48.571Z,9.30
2018-04-17T09:11:17.344Z,7.20
2018-04-17T09:13:45.770Z,6.43
2018-04-17T09:16:15.282Z,6.70
2018-04-17T09:18:42.875Z,6.50
2018-04-17T09:21:11.146Z,7.00
2018-04-17T09:23:40.644Z,6.97
2018-04-17T09:26:11.385Z,6.50
2018-04-17T09:28:40.306Z,6.40
2018-04-17T09:31:08.012Z,6.87
2018-04-17T09:33:35.538Z,6.30
2018-04-17T09:36:03.949Z,6.50
2018-04-17T09:38:32.275Z,6.43
2018-04-17T09:40:59.790Z,7.05
2018-04-17T09:43:27.334Z,7.18
2018-04-17T09:45:54.869Z,6.50
2018-04-17T09:48:22.402Z,6.25
2018-04-17T09:50:49.953Z,5.65
2018-04-17T09:53:17.518Z,6.10
2018-04-17T09:55:45.118Z,4.90
2018-04-17T09:58:12.615Z,4.87
2018-04-17T10:00:45.770Z,5.78
2018-04-17T10:03:13.314Z,4.80
2018-04-17T10:05:40.841Z,4.35
2018-04-17T10:08:08.350Z,4.23
2018-04-17T10:10:35.934Z,5.18
2018-04-17T10:13:03.486Z,4.37
2018-04-17T10:15:30.992Z,5.32
2018-04-17T10:17:58.834Z,5.22
2018-04-17T10:20:26.386Z,5.90
2018-04-17T10:22:53.919Z,5.85
2018-04-17T10:25:22.202Z,5.70
2018-04-17T10:27:49.733Z,4.45
2018-04-17T10:30:17.295Z,6.12
2018-04-17T10:32:44.844Z,6.28
2018-04-17T10:35:13.234Z,5.50
2018-04-17T10:37:40.750Z,5.33
2018-04-17T10:40:08.296Z,5.45
2018-04-17T10:42:35.825Z,5.20
2018-04-17T10:45:03.350Z,5.10
2018-04-17T10:47:30.947Z,4.40
2018-04-17T10:49:59.362Z,5.18
2018-04-17T10:52:26.887Z,4.70
2018-04-17T10:54:55.203Z,4.90
2018-04-17T10:57:22.760Z,4.53
2018-04-17T10:59:50.330Z,5.37
2018-04-17T11:02:17.859Z,4.95
2018-04-17T11:04:45.430Z,5.10
2018-04-17T11:07:13.609Z,4.97
2018-04-17T11:09:41.136Z,4.60
2018-04-17T11:12:09.422Z,4.95
2018-04-17T11:14:36.927Z,3.35
2018-04-17T11:17:04.469Z,5.07
2018-04-17T11:19:32.021Z,4.22
2018-04-17T11:21:59.553Z,5.90
2018-04-17T11:24:27.818Z,5.47
2018-04-17T11:26:55.359Z,5.05
2018-04-17T11:29:22.914Z,4.65
2018-04-17T11:31:51.253Z,4.30
2018-04-17T11:34:18.769Z,4.80
2018-04-17T11:36:46.353Z,5.35
2018-04-17T11:39:13.970Z,4.75
2018-04-17T11:41:42.249Z,5.35
2018-04-17T11:44:09.885Z,5.37
2018-04-17T11:46:37.527Z,4.68
2018-04-17T11:49:05.053Z,4.28
2018-04-17T11:51:32.669Z,6.07
2018-04-17T11:54:00.202Z,4.85
2018-04-17T11:56:28.485Z,4.85
2018-04-17T11:58:56.767Z,5.53
2018-04-17T12:01:25.063Z,4.70
2018-04-17T12:03:52.590Z,4.10
2018-04-17T12:06:20.128Z,5.60
2018-04-17T12:08:47.653Z,5.57
2018-04-17T12:11:15.150Z,3.80
2018-04-17T12:13:42.703Z,4.85
2018-04-17T12:16:10.232Z,3.40
2018-04-17T12:18:37.749Z,4.93
2018-04-17T12:21:05.277Z,4.30
2018-04-17T12:23:32.789Z,4.30
2018-04-17T12:26:00.310Z,5.32
2018-04-17T12:28:27.852Z,3.62
2018-04-17T12:30:55.376Z,4.50
2018-04-17T12:33:22.887Z,4.03
2018-04-17T12:35:50.395Z,5.68
2018-04-17T12:38:18.058Z,3.62
2018-04-17T12:40:45.568Z,4.85
2018-04-17T12:43:13.106Z,5.00
2018-04-17T12:45:40.665Z,4.90
2018-04-17T12:48:08.325Z,5.80
2018-04-17T12:50:35.865Z,5.47
2018-04-17T12:53:03.368Z,4.87
2018-04-17T12:55:31.023Z,5.35
2018-04-17T12:57:58.555Z,4.90
2018-04-17T13:00:26.105Z,5.40
2018-04-17T13:02:53.628Z,5.00
2018-04-17T13:05:21.142Z,4.50
2018-04-17T13:07:48.725Z,5.05
2018-04-17T13:10:16.282Z,4.70
2018-04-17T13:12:43.804Z,5.18
2018-04-17T13:15:11.322Z,4.12
2018-04-17T13:17:38.883Z,4.12
2018-04-17T13:20:06.405Z,3.37
2018-04-17T13:22:33.930Z,3.50
2018-04-17T13:25:01.447Z,4.25
2018-04-17T13:27:29.766Z,3.80
2018-04-17T13:29:57.330Z,3.80
2018-04-17T13:32:24.857Z,4.15
2018-04-17T13:34:53.129Z,3.70
2018-04-17T13:37:21.416Z,4.12
2018-04-17T13:39:49.689Z,4.37
2018-04-17T13:42:18.053Z,3.58
2018-04-17T13:44:45.551Z,4.43
2018-04-17T13:47:13.121Z,4.45
2018-04-17T13:49:40.633Z,2.95
2018-04-17T13:52:08.171Z,3.90
2018-04-17T13:54:35.727Z,4.07
2018-04-17T13:57:03.256Z,4.07
2018-04-17T13:59:30.808Z,3.87
2018-04-17T14:01:59.085Z,3.70
2018-04-17T14:04:26.628Z,3.60
2018-04-17T14:06:54.160Z,3.75
2018-04-17T14:09:21.686Z,3.92
2018-04-17T14:11:49.195Z,4.50
2018-04-17T14:14:16.914Z,4.82
2018-04-17T14:16:46.347Z,3.80
2018-04-17T14:19:16.238Z,6.97
2018-04-17T14:21:44.710Z,3.95
2018-04-17T14:24:12.298Z,4.20
2018-04-17T14:26:40.737Z,5.05
2018-04-17T14:29:08.240Z,4.55
2018-04-17T14:31:35.797Z,3.65
2018-04-17T14:34:03.306Z,3.08
2018-04-17T14:36:30.891Z,4.05
2018-04-17T14:38:58.515Z,3.30
2018-04-17T14:41:26.805Z,3.50
2018-04-17T14:43:54.350Z,4.18
2018-04-17T14:46:21.889Z,3.30
2018-04-17T14:48:49.530Z,3.62
2018-04-17T14:51:17.844Z,3.40
2018-04-17T14:53:46.132Z,3.17
2018-04-17T14:56:14.403Z,3.92
2018-04-17T14:58:42.696Z,3.85
2018-04-17T15:01:10.225Z,4.25
2018-04-17T15:03:37.762Z,4.60
2018-04-17T15:06:05.284Z,3.30
2018-04-17T15:08:32.848Z,3.92
2018-04-17T15:11:03.164Z,3.30
2018-04-17T15:13:30.786Z,3.78
2018-04-17T15:15:58.344Z,4.40
2018-04-17T15:18:25.910Z,4.47
2018-04-17T15:20:53.441Z,3.72
2018-04-17T15:23:20.953Z,4.00
2018-04-17T15:25:49.238Z,3.67
2018-04-17T15:28:16.825Z,3.53
2018-04-17T15:30:44.340Z,4.05
2018-04-17T15:33:12.629Z,4.57
2018-04-17T15:35:40.934Z,4.28
2018-04-17T15:38:08.473Z,3.72
2018-04-17T15:40:36.152Z,3.95
2018-04-17T15:43:03.674Z,3.08
2018-04-17T15:45:32.762Z,3.97
2018-04-17T15:48:04.544Z,4.15
2018-04-17T15:50:32.829Z,3.90
2018-04-17T15:53:00.472Z,4.20
2018-04-17T15:55:28.900Z,3.40
2018-04-17T15:57:56.663Z,4.50
2018-04-17T16:00:24.270Z,3.70
2018-04-17T16:02:52.736Z,3.72
2018-04-17T16:05:20.283Z,3.58
2018-04-17T16:07:48.874Z,3.87
2018-04-17T16:10:16.406Z,4.55
2018-04-17T16:12:44.026Z,3.80
2018-04-17T16:15:12.475Z,3.80
2018-04-17T16:17:40.113Z,3.50
2018-04-17T16:20:07.644Z,4.30
2018-04-17T16:22:35.217Z,4.40
2018-04-17T16:25:02.727Z,3.85
2018-04-17T16:27:30.261Z,3.65
2018-04-17T16:29:57.778Z,4.03
2018-04-17T16:32:25.348Z,4.32
2018-04-17T16:34:52.923Z,4.22
2018-04-17T16:37:20.484Z,3.72
2018-04-17T16:39:47.992Z,3.50
2018-04-17T16:42:15.522Z,3.62
2018-04-17T16:44:44.710Z,4.10
2018-04-17T16:47:12.261Z,3.30
2018-04-17T16:49:40.416Z,3.45
2018-04-17T16:52:07.966Z,4.28
2018-04-17T16:54:35.499Z,4.35
2018-04-17T16:57:03.113Z,3.45
2018-04-17T16:59:30.730Z,3.08
2018-04-17T17:01:58.249Z,3.78
2018-04-17T17:04:25.786Z,3.22
2018-04-17T17:06:53.353Z,4.65
2018-04-17T17:09:20.898Z,4.68
2018-04-17T17:11:48.412Z,3.00
2018-04-17T17:14:16.113Z,3.87
2018-04-17T17:16:43.731Z,3.95
2018-04-17T17:19:11.272Z,4.70
2018-04-17T17:21:38.794Z,6.03
2018-04-17T17:24:07.126Z,5.45
2018-04-17T17:26:34.661Z,4.97
2018-04-17T17:29:02.185Z,5.15
2018-04-17T17:31:30.475Z,3.70
2018-04-17T17:33:58.813Z,4.30
2018-04-17T17:36:26.346Z,4.60
2018-04-17T17:38:53.896Z,5.32
2018-04-17T17:41:21.942Z,4.03
2018-04-17T17:50:33.261Z,3.95
2018-04-17T17:53:01.544Z,4.20
2018-04-17T17:55:29.845Z,5.50
2018-04-17T17:57:57.404Z,4.90
2018-04-17T18:00:24.942Z,5.55
2018-04-17T18:02:53.252Z,4.28
2018-04-17T18:05:20.779Z,4.07
2018-04-17T18:07:48.297Z,4.85
2018-04-17T18:10:15.830Z,4.85
2018-04-17T18:12:43.363Z,4.20
2018-04-17T18:15:10.887Z,6.70
2018-04-17T18:17:38.443Z,4.43
2018-04-17T18:20:05.962Z,6.45
2018-04-17T18:22:33.494Z,4.93
2018-04-17T18:25:01.883Z,5.57
2018-04-17T18:27:29.456Z,6.07
2018-04-17T18:29:59.868Z,7.25
2018-04-17T18:32:28.193Z,6.57
2018-04-17T18:34:55.718Z,6.43
2018-04-17T18:37:23.217Z,5.82
2018-04-17T18:39:50.735Z,5.25
2018-04-17T18:42:18.335Z,6.47
2018-04-17T18:44:45.846Z,5.32
2018-04-17T18:47:14.170Z,6.78
2018-04-17T18:49:41.726Z,6.57
2018-04-17T18:52:09.343Z,5.82
2018-04-17T18:54:36.904Z,6.32
2018-04-17T18:57:05.214Z,11.25
2018-04-17T18:59:38.852Z,7.57
2018-04-17T19:02:06.388Z,9.43
2018-04-17T19:04:33.938Z,7.20
2018-04-17T19:07:01.616Z,7.60
2018-04-17T19:09:29.118Z,6.65
2018-04-17T19:11:57.387Z,8.95
2018-04-17T19:14:25.810Z,8.90
2018-04-17T19:16:53.423Z,9.90
2018-04-17T19:19:21.055Z,8.98
2018-04-17T19:21:48.610Z,10.23
2018-04-17T19:24:16.159Z,8.30
2018-04-17T19:26:43.687Z,11.07
2018-04-17T19:29:11.216Z,11.10
2018-04-17T19:31:38.784Z,10.65
2018-04-17T19:34:06.344Z,8.77
2018-04-17T19:36:33.927Z,10.07
2018-04-17T19:39:01.505Z,9.75
2018-04-17T19:41:29.095Z,10.43
2018-04-17T19:43:56.651Z,8.68
2018-04-17T19:46:24.187Z,10.35
2018-04-17T19:48:51.765Z,11.15
2018-04-17T19:51:19.323Z,9.82
2018-04-17T19:53:46.860Z,10.90
2018-04-17T19:56:14.366Z,9.73
2018-04-17T19:58:41.921Z,11.80
2018-04-17T20:01:09.445Z,11.70
2018-04-17T20:03:37.040Z,11.05
2018-04-17T20:06:04.565Z,10.88
2018-04-17T20:08:32.141Z,9.52
2018-04-17T20:10:59.792Z,9.07
2018-04-17T20:13:27.419Z,10.95
2018-04-17T20:15:54.933Z,10.60
2018-04-17T20:18:22.605Z,10.80
2018-04-17T20:20:50.134Z,11.63
2018-04-17T20:23:17.690Z,10.70
2018-04-17T20:25:45.269Z,11.50
2018-04-17T20:28:12.865Z,13.52
2018-04-17T20:30:41.183Z,10.60
2018-04-17T20:33:08.845Z,11.48
2018-04-17T20:35:36.497Z,11.45
2018-04-17T20:38:04.058Z,10.70
2018-04-17T20:40:31.637Z,11.12
2018-04-17T20:42:59.210Z,10.35
2018-04-17T20:45:26.737Z,10.90
2018-04-17T20:47:55.145Z,12.20
2018-04-17T20:50:22.855Z,11.63
2018-04-17T20:52:50.523Z,15.43
2018-04-17T20:55:18.863Z,15.48
2018-04-17T20:57:46.426Z,15.50
2018-04-17T21:00:14.099Z,13.18
2018-04-17T21:02:41.632Z,14.38
2018-04-17T21:05:09.146Z,13.98
2018-04-17T21:07:36.684Z,12.13
2018-04-17T21:10:04.208Z,12.88
2018-04-17T21:12:31.751Z,14.98
2018-04-17T21:14:59.290Z,14.50
2018-04-17T21:17:27.616Z,14.70
2018-04-17T21:19:55.872Z,15.73
2018-04-17T21:22:23.421Z,17.25
2018-04-17T21:24:51.007Z,14.98
2018-04-17T21:27:18.617Z,15.05
2018-04-17T21:29:47.000Z,16.60
2018-04-17T21:32:16.320Z,16.48
2018-04-17T21:34:43.878Z,17.30
2018-04-17T21:37:11.482Z,18.20
2018-04-17T21:39:39.403Z,16.35
2018-04-17T21:42:07.695Z,19.30
2018-04-17T21:44:35.265Z,20.37
2018-04-17T21:47:02.822Z,19.33
2018-04-17T21:49:30.433Z,17.87
2018-04-17T21:51:57.976Z,17.02
2018-04-17T21:54:25.535Z,17.77
2018-04-17T21:56:53.091Z,17.58
2018-04-17T21:59:20.668Z,15.25
2018-04-17T22:01:48.216Z,16.58
2018-04-17T22:04:15.741Z,16.25
2018-04-17T22:06:43.287Z,16.77
2018-04-17T22:09:11.602Z,15.30
2018-04-17T22:11:39.210Z,15.52
2018-04-17T22:14:07.511Z,19.02
2018-04-17T22:16:35.128Z,15.48
2018-04-17T22:19:02.731Z,15.73
2018-04-17T22:21:30.280Z,14.55
2018-04-17T22:23:58.668Z,16.30
2018-04-17T22:26:26.320Z,15.95
2018-04-17T22:28:53.941Z,16.23
2018-04-17T22:31:21.485Z,16.10
2018-04-17T22:33:49.090Z,15.98
2018-04-17T22:36:17.420Z,17.75
2018-04-17T22:38:45.350Z,15.20
2018-04-17T22:41:13.882Z,15.57
2018-04-17T22:43:41.455Z,16.60
2018-04-17T22:46:09.011Z,15.98
2018-04-17T22:48:36.549Z,16.42
2018-04-17T22:51:04.113Z,15.73
2018-04-17T22:53:31.698Z,15.52
2018-04-17T22:56:00.056Z,16.55
2018-04-17T22:58:27.810Z,17.87
2018-04-17T23:00:57.171Z,16.70
2018-04-17T23:03:24.730Z,16.12
2018-04-17T23:05:52.317Z,15.98
2018-04-17T23:08:20.936Z,16.37
2018-04-17T23:10:48.480Z,16.23
2018-04-17T23:13:16.059Z,15.13
2018-04-17T23:15:43.606Z,14.68
2018-04-17T23:18:11.163Z,16.98
2018-04-17T23:20:38.877Z,15.70
2018-04-17T23:23:06.401Z,15.10
2018-04-17T23:25:33.996Z,16.92
2018-04-17T23:28:01.510Z,16.02
2018-04-17T23:30:29.052Z,14.80
2018-04-17T23:32:56.939Z,14.40
2018-04-17T23:35:24.477Z,15.32
2018-04-17T23:37:52.024Z,16.80
2018-04-17T23:40:19.633Z,16.27
2018-04-17T23:42:47.166Z,15.00
2018-04-17T23:45:14.852Z,13.75
2018-04-17T23:47:42.391Z,15.13
2018-04-17T23:50:09.987Z,12.68
2018-04-17T23:52:37.548Z,12.77
2018-04-17T23:55:05.074Z,15.93
2018-04-17T23:57:32.840Z,14.95
